Vinemont, Pennsylvania
Current Conditions -  °F | °C
As of 10:54 AM on Thursday 30 Oct 2014 (Local Time) from KRDG Reporting Station
Broken Clouds Broken Clouds  
Wind Chill: 52°   Ceiling: 3000
Heat Index: 52°   Visibility: 10mi
Dew Point: 41°   Wind: 10mph
Humidity: 66%   Direction: 350°N
Pressure: 30.04"   Gusts: NA
Location:  40.2731°N, 76.0902°W
Report Text: KRDG 301454Z 35009KT 10SM BKN030 BKN036 11/05 A3004 RMK AO2 RAB43E54 SLP177 P0000 60000 T01110050 50005
Loading
Personal Weather Stations






























Interactive Weather Map
Tropical Storm Tracking
New forecast layout! Learn more

10-Day Weather Forecast

Advertisements
Track Severe Weather on mobile